ROA062 SVVG-SVMI
Flight info
| Callsign | ROA062 |
|---|---|
| Flight time | N/A |
| Altitude | 25000 |
| Route | VRA UW8 BRM UW40 PBL ALDAK1 |
| Aircraft | B738/M-SDE2E3FGHIRWXY/LB1 |
Departure
| Time | N/A |
|---|---|
| Airport | Juan Pablo Pérez Alfonso Airport (SVVG) |
Arrival
| Time | 2026-05-03 20:28 |
|---|---|
| Airport | Maiquetía Simón Bolívar International Airport (SVMI) |
| Time | Latitude | Longitude | Altitude | Speed | Heading |
|---|---|---|---|---|---|
| 2026-05-03 20:15 | 10.53810 | -67.85068 | 10341 ft | 275 kts | 78° |
| 2026-05-03 20:15 | 10.54254 | -67.83192 | 9997 ft | 266 kts | 78° |
| 2026-05-03 20:15 | 10.54712 | -67.81258 | 9660 ft | 259 kts | 78° |
| 2026-05-03 20:15 | 10.55145 | -67.79426 | 9298 ft | 252 kts | 78° |
| 2026-05-03 20:16 | 10.55585 | -67.77554 | 8925 ft | 251 kts | 78° |
| 2026-05-03 20:16 | 10.56014 | -67.75732 | 8528 ft | 248 kts | 78° |
| 2026-05-03 20:16 | 10.56443 | -67.73920 | 8140 ft | 246 kts | 78° |
| 2026-05-03 20:16 | 10.56862 | -67.72149 | 7765 ft | 248 kts | 78° |
| 2026-05-03 20:17 | 10.57285 | -67.70350 | 7395 ft | 245 kts | 78° |
| 2026-05-03 20:17 | 10.57708 | -67.68557 | 7189 ft | 244 kts | 78° |
| 2026-05-03 20:17 | 10.58117 | -67.66750 | 6993 ft | 244 kts | 82° |
| 2026-05-03 20:17 | 10.58302 | -67.64889 | 6812 ft | 243 kts | 89° |
| 2026-05-03 20:18 | 10.58338 | -67.62973 | 6610 ft | 243 kts | 90° |
| 2026-05-03 20:18 | 10.58368 | -67.61047 | 6407 ft | 244 kts | 89° |
| 2026-05-03 20:18 | 10.58422 | -67.59154 | 6222 ft | 243 kts | 89° |
| 2026-05-03 20:18 | 10.58488 | -67.57276 | 6027 ft | 241 kts | 89° |
| 2026-05-03 20:19 | 10.58551 | -67.55486 | 5860 ft | 239 kts | 89° |
| 2026-05-03 20:19 | 10.58614 | -67.53690 | 5688 ft | 239 kts | 89° |
| 2026-05-03 20:19 | 10.58675 | -67.51911 | 5478 ft | 237 kts | 89° |
| 2026-05-03 20:19 | 10.58737 | -67.50121 | 5284 ft | 237 kts | 89° |
| 2026-05-03 20:20 | 10.58797 | -67.48381 | 5101 ft | 235 kts | 89° |
| 2026-05-03 20:20 | 10.58856 | -67.46643 | 4910 ft | 237 kts | 88° |
| 2026-05-03 20:20 | 10.58914 | -67.44950 | 4739 ft | 234 kts | 88° |
| 2026-05-03 20:20 | 10.58973 | -67.43228 | 4570 ft | 232 kts | 88° |
| 2026-05-03 20:21 | 10.59033 | -67.41467 | 4384 ft | 231 kts | 88° |
| 2026-05-03 20:21 | 10.59094 | -67.39723 | 4191 ft | 231 kts | 88° |
| 2026-05-03 20:21 | 10.59152 | -67.38007 | 4000 ft | 230 kts | 88° |
| 2026-05-03 20:21 | 10.59210 | -67.36256 | 3952 ft | 228 kts | 88° |
| 2026-05-03 20:22 | 10.59250 | -67.34553 | 3949 ft | 231 kts | 89° |
| 2026-05-03 20:22 | 10.59277 | -67.32789 | 3958 ft | 228 kts | 89° |
| 2026-05-03 20:22 | 10.59311 | -67.31110 | 3967 ft | 221 kts | 89° |
| 2026-05-03 20:22 | 10.59352 | -67.29465 | 3961 ft | 218 kts | 89° |
| 2026-05-03 20:23 | 10.59397 | -67.27820 | 3964 ft | 218 kts | 88° |
| 2026-05-03 20:23 | 10.59444 | -67.26165 | 3964 ft | 219 kts | 88° |
| 2026-05-03 20:23 | 10.59493 | -67.24493 | 3966 ft | 217 kts | 88° |
| 2026-05-03 20:23 | 10.59543 | -67.22851 | 3975 ft | 205 kts | 88° |
| 2026-05-03 20:24 | 10.59589 | -67.21333 | 3981 ft | 186 kts | 88° |
| 2026-05-03 20:24 | 10.59628 | -67.19982 | 3784 ft | 179 kts | 88° |
| 2026-05-03 20:24 | 10.59669 | -67.18617 | 3509 ft | 177 kts | 88° |
| 2026-05-03 20:24 | 10.59709 | -67.17279 | 3267 ft | 176 kts | 88° |
| 2026-05-03 20:25 | 10.59749 | -67.15947 | 3010 ft | 174 kts | 87° |
| 2026-05-03 20:25 | 10.59789 | -67.14648 | 2778 ft | 174 kts | 87° |
| 2026-05-03 20:25 | 10.59832 | -67.13333 | 2535 ft | 173 kts | 87° |
| 2026-05-03 20:25 | 10.59871 | -67.12009 | 2295 ft | 173 kts | 87° |
| 2026-05-03 20:26 | 10.59910 | -67.10716 | 2055 ft | 168 kts | 87° |
| 2026-05-03 20:26 | 10.59947 | -67.09486 | 1830 ft | 167 kts | 87° |
| 2026-05-03 20:26 | 10.59985 | -67.08280 | 1619 ft | 150 kts | 87° |
| 2026-05-03 20:26 | 10.60019 | -67.07168 | 1375 ft | 149 kts | 88° |
| 2026-05-03 20:27 | 10.60056 | -67.06072 | 1186 ft | 149 kts | 88° |
| 2026-05-03 20:27 | 10.60095 | -67.04957 | 977 ft | 150 kts | 88° |
| 2026-05-03 20:27 | 10.60133 | -67.03816 | 758 ft | 152 kts | 88° |
| 2026-05-03 20:27 | 10.60167 | -67.02724 | 647 ft | 151 kts | 89° |
| 2026-05-03 20:28 | 10.60192 | -67.01627 | 430 ft | 149 kts | 87° |
| 2026-05-03 20:28 | 10.60235 | -67.00593 | 324 ft | 135 kts | 88° |
| 2026-05-03 20:28 | 10.60260 | -66.99771 | 301 ft | 71 kts | 89° |
| 2026-05-03 20:28 | 10.60267 | -66.99390 | 285 ft | 48 kts | 89° |
| 2026-05-03 20:29 | 10.60259 | -66.99138 | 273 ft | 20 kts | 136° |
| 2026-05-03 20:29 | 10.60149 | -66.99103 | 276 ft | 12 kts | 167° |
| 2026-05-03 20:29 | 10.60144 | -66.99102 | 276 ft | 0 kts | 166° |
| 2026-05-03 20:30 | 10.60121 | -66.99097 | 276 ft | 10 kts | 166° |
| 2026-05-03 20:31 | 10.60030 | -66.99143 | 280 ft | 17 kts | 246° |
| 2026-05-03 20:31 | 10.59994 | -66.99270 | 289 ft | 16 kts | 256° |
| 2026-05-03 20:31 | 10.59955 | -66.99423 | 297 ft | 21 kts | 256° |
| 2026-05-03 20:31 | 10.59922 | -66.99564 | 305 ft | 19 kts | 257° |
| 2026-05-03 20:32 | 10.59960 | -66.99667 | 307 ft | 17 kts | 353° |
| 2026-05-03 20:32 | 10.60100 | -66.99674 | 302 ft | 18 kts | 336° |
| 2026-05-03 20:32 | 10.60134 | -66.99789 | 305 ft | 14 kts | 268° |
| 2026-05-03 20:32 | 10.60129 | -66.99889 | 308 ft | 13 kts | 252° |
| 2026-05-03 20:33 | 10.60039 | -66.99919 | 311 ft | 15 kts | 175° |
| 2026-05-03 20:33 | 10.59932 | -66.99922 | 315 ft | 12 kts | 212° |
| 2026-05-03 20:33 | 10.59910 | -66.99998 | 317 ft | 8 kts | 255° |
| 2026-05-03 20:33 | 10.59878 | -67.00017 | 318 ft | 0 kts | 184° |
| 2026-05-03 20:34 | 10.59863 | -67.00017 | 318 ft | 5 kts | 180° |
| 2026-05-03 20:34 | 10.59843 | -67.00017 | 319 ft | 0 kts | 178° |
| 2026-05-03 20:34 | 10.59841 | -67.00017 | 319 ft | 0 kts | 178° |